Time;durP1;ratioP1;P1;durP2;ratioP2;P2;SDS_P1;SDS_P2;PMS_P1;PMS_P2;Temp;Humidity;BMP_temperature;BMP_pressure;BME280_temperature;BME280_humidity;BME280_pressure;Samples;Min_cycle;Max_cycle;Signal;HPM_P1;HPM_P2
2020/12/18 00:00:29;;;;;;;13.13;10.23;;;8.20;99.90;;;;;;5014719;28;20457;-61
2020/12/18 00:02:55;;;;;;;15.23;10.93;;;8.20;99.90;;;;;;5014388;28;20503;-60
2020/12/18 00:05:21;;;;;;;15.80;11.23;;;8.20;99.90;;;;;;5015945;28;20949;-61
2020/12/18 00:07:47;;;;;;;15.50;10.90;;;8.20;99.90;;;;;;5018568;28;20461;-60
2020/12/18 00:10:14;;;;;;;17.80;11.40;;;8.10;99.90;;;;;;5018448;28;20546;-61
2020/12/18 00:12:40;;;;;;;14.80;11.00;;;8.10;99.90;;;;;;5018446;28;20460;-60
2020/12/18 00:15:06;;;;;;;16.03;11.03;;;8.10;99.90;;;;;;5018074;28;20608;-60
2020/12/18 00:17:32;;;;;;;14.60;11.13;;;8.10;99.90;;;;;;5018214;28;20471;-60
2020/12/18 00:19:58;;;;;;;15.87;10.77;;;8.10;99.90;;;;;;5018021;28;20497;-61
2020/12/18 00:22:24;;;;;;;14.53;10.70;;;8.00;99.90;;;;;;5018011;28;20468;-60
2020/12/18 00:24:53;;;;;;;16.17;11.17;;;8.00;99.90;;;;;;5017962;28;20738;-60
2020/12/18 00:27:19;;;;;;;15.53;11.07;;;8.00;99.90;;;;;;5018249;28;20480;-60
2020/12/18 00:29:45;;;;;;;13.60;9.87;;;8.00;99.90;;;;;;5017884;28;20957;-62
2020/12/18 00:32:12;;;;;;;14.20;11.13;;;8.00;99.90;;;;;;5017924;28;20788;-61
2020/12/18 00:34:38;;;;;;;15.17;10.40;;;8.00;99.90;;;;;;5017394;28;21014;-60
2020/12/18 00:37:04;;;;;;;13.90;10.63;;;8.00;99.90;;;;;;5017934;28;20483;-60
2020/12/18 00:39:30;;;;;;;16.20;11.33;;;7.90;99.90;;;;;;5017726;28;20469;-60
2020/12/18 00:41:56;;;;;;;16.20;10.70;;;7.90;99.90;;;;;;5017566;28;20503;-61
2020/12/18 00:44:23;;;;;;;16.53;11.03;;;7.90;99.90;;;;;;5017507;28;20483;-60
2020/12/18 00:46:49;;;;;;;14.43;10.70;;;7.90;99.90;;;;;;5017669;28;20512;-60
2020/12/18 00:49:15;;;;;;;14.23;10.70;;;7.90;99.90;;;;;;5017552;28;20460;-60
2020/12/18 00:51:41;;;;;;;15.10;10.93;;;7.80;99.90;;;;;;5017572;28;20468;-61
2020/12/18 00:54:08;;;;;;;17.37;11.80;;;7.80;99.90;;;;;;5017810;28;20485;-61
2020/12/18 00:56:34;;;;;;;16.17;11.60;;;7.80;99.90;;;;;;5018928;28;21041;-61
2020/12/18 00:59:00;;;;;;;14.90;10.70;;;7.80;99.90;;;;;;5017308;28;20518;-61
2020/12/18 01:01:27;;;;;;;17.20;10.80;;;7.80;99.90;;;;;;5017287;28;20476;-61
2020/12/18 01:03:53;;;;;;;14.97;10.03;;;7.80;99.90;;;;;;5016874;28;20461;-60
2020/12/18 01:06:19;;;;;;;17.43;11.23;;;7.90;99.90;;;;;;5017478;28;20566;-61
2020/12/18 01:08:45;;;;;;;14.23;11.23;;;7.80;99.90;;;;;;5017163;28;20453;-60
2020/12/18 01:11:11;;;;;;;15.40;11.70;;;7.70;99.90;;;;;;5017708;28;20583;-61
2020/12/18 01:13:37;;;;;;;17.70;12.40;;;7.70;99.90;;;;;;5017157;28;20522;-61
2020/12/18 01:16:03;;;;;;;14.13;11.30;;;7.70;99.90;;;;;;5016745;28;20495;-60
2020/12/18 01:18:30;;;;;;;16.17;13.07;;;7.70;99.90;;;;;;5016428;28;20457;-60
2020/12/18 01:20:59;;;;;;;18.40;11.80;;;7.60;99.90;;;;;;5017411;28;20483;-61
2020/12/18 01:23:26;;;;;;;14.87;11.83;;;7.60;99.90;;;;;;5016861;28;20457;-61
2020/12/18 01:25:52;;;;;;;14.50;11.60;;;7.50;99.90;;;;;;5016965;28;20913;-60
2020/12/18 01:28:18;;;;;;;18.13;12.03;;;7.50;99.90;;;;;;5017341;28;20475;-60
2020/12/18 01:30:44;;;;;;;16.60;11.63;;;7.50;99.90;;;;;;5016773;28;20456;-60
2020/12/18 01:33:10;;;;;;;17.00;12.20;;;7.50;99.90;;;;;;5016867;28;20496;-60
2020/12/18 01:35:37;;;;;;;17.53;12.70;;;7.50;99.90;;;;;;5016883;28;20452;-60
2020/12/18 01:38:03;;;;;;;15.97;12.37;;;7.50;99.90;;;;;;5017900;28;20457;-60
2020/12/18 01:40:30;;;;;;;25.13;12.30;;;7.50;99.90;;;;;;5020336;28;20914;-61
2020/12/18 01:42:56;;;;;;;16.57;11.43;;;7.50;99.90;;;;;;5019824;28;20919;-61
2020/12/18 01:45:22;;;;;;;14.00;10.67;;;7.60;99.90;;;;;;5016596;28;20461;-60
2020/12/18 01:47:49;;;;;;;14.70;11.00;;;7.60;99.90;;;;;;5016545;28;20789;-60
2020/12/18 01:50:15;;;;;;;16.17;11.47;;;7.60;99.90;;;;;;5016369;28;20541;-61
2020/12/18 01:52:44;;;;;;;18.60;11.60;;;7.60;99.90;;;;;;5016527;28;20461;-65
2020/12/18 01:55:10;;;;;;;16.10;12.13;;;7.60;99.90;;;;;;5016718;28;20542;-61
2020/12/18 01:57:37;;;;;;;16.13;11.67;;;7.60;99.90;;;;;;5016280;28;20472;-60
2020/12/18 02:00:06;;;;;;;14.90;11.33;;;7.60;99.90;;;;;;5016348;28;20457;-60
2020/12/18 02:02:32;;;;;;;15.03;11.17;;;7.60;99.90;;;;;;5016125;28;20453;-60
2020/12/18 02:04:58;;;;;;;15.03;10.90;;;7.60;99.90;;;;;;5015864;28;20962;-60
2020/12/18 02:07:27;;;;;;;16.50;11.17;;;7.60;99.90;;;;;;5016281;28;20985;-60
2020/12/18 02:09:55;;;;;;;17.53;12.00;;;7.60;99.90;;;;;;5016112;28;20457;-60
2020/12/18 02:12:21;;;;;;;17.97;12.00;;;7.60;99.90;;;;;;5015760;28;20532;-60
2020/12/18 02:14:49;;;;;;;15.83;11.27;;;7.60;99.90;;;;;;5015736;28;20544;-59
2020/12/18 02:17:15;;;;;;;16.10;11.53;;;7.60;99.90;;;;;;5015282;28;20909;-61
2020/12/18 02:19:43;;;;;;;16.30;10.87;;;7.60;99.90;;;;;;5015659;28;20776;-60
2020/12/18 02:22:13;;;;;;;15.10;11.40;;;7.60;99.90;;;;;;5015692;28;20457;-60
2020/12/18 02:24:48;;;;;;;16.83;11.33;;;7.50;99.90;;;;;;5015578;28;20771;-60
2020/12/18 02:27:15;;;;;;;17.40;11.37;;;7.60;99.90;;;;;;5016045;28;20538;-60
2020/12/18 02:29:41;;;;;;;16.40;12.60;;;7.60;99.90;;;;;;5015784;28;20492;-60
2020/12/18 02:32:07;;;;;;;16.00;11.50;;;7.60;99.90;;;;;;5015629;28;20461;-60
2020/12/18 02:34:34;;;;;;;14.87;12.00;;;7.60;99.90;;;;;;5016215;28;20468;-60
2020/12/18 02:37:00;;;;;;;17.30;11.97;;;7.60;99.90;;;;;;5015206;28;20547;-60
2020/12/18 02:39:26;;;;;;;16.80;11.57;;;7.60;99.90;;;;;;5016166;28;20791;-61
2020/12/18 02:41:52;;;;;;;14.73;9.73;;;7.70;99.90;;;;;;5015714;28;20461;-60
2020/12/18 02:44:19;;;;;;;13.27;10.70;;;7.70;99.90;;;;;;5016772;28;20465;-60
2020/12/18 02:46:47;;;;;;;13.63;10.60;;;7.70;99.90;;;;;;5016871;28;20477;-60
2020/12/18 02:49:13;;;;;;;16.80;11.73;;;7.70;99.90;;;;;;5015592;28;20500;-60
2020/12/18 02:51:39;;;;;;;17.10;11.80;;;7.70;99.90;;;;;;5015735;28;20460;-60
2020/12/18 02:54:05;;;;;;;15.17;11.70;;;7.60;99.90;;;;;;5015798;28;20529;-59
2020/12/18 02:56:31;;;;;;;18.57;11.73;;;7.60;99.90;;;;;;5015713;28;20456;-60
2020/12/18 02:58:57;;;;;;;15.17;10.97;;;7.60;99.90;;;;;;5015314;28;21008;-60
2020/12/18 03:01:24;;;;;;;14.07;11.40;;;7.50;99.90;;;;;;5015890;28;20457;-60
2020/12/18 03:03:50;;;;;;;15.37;11.20;;;7.60;99.90;;;;;;5015919;28;20464;-60
2020/12/18 03:06:16;;;;;;;17.17;11.87;;;7.50;99.90;;;;;;5014979;28;20484;-60
2020/12/18 03:08:42;;;;;;;15.03;11.10;;;7.60;99.90;;;;;;5015559;28;20460;-60
2020/12/18 03:11:08;;;;;;;14.43;11.57;;;7.50;99.90;;;;;;5015406;28;20485;-60
2020/12/18 03:13:35;;;;;;;13.53;10.47;;;7.50;99.90;;;;;;5016226;28;20483;-60
2020/12/18 03:16:01;;;;;;;17.20;12.47;;;7.60;99.90;;;;;;5015867;28;20540;-60
2020/12/18 03:18:28;;;;;;;13.87;10.53;;;7.50;99.90;;;;;;5015312;28;20483;-60
2020/12/18 03:20:54;;;;;;;18.30;12.57;;;7.50;99.90;;;;;;5015345;28;20523;-60
2020/12/18 03:23:20;;;;;;;14.10;11.10;;;7.50;99.90;;;;;;5015259;28;20461;-60
2020/12/18 03:25:47;;;;;;;18.70;11.77;;;7.50;99.90;;;;;;5016719;28;20571;-60
2020/12/18 03:28:13;;;;;;;15.37;10.80;;;7.50;99.90;;;;;;5015096;28;20457;-61
2020/12/18 03:30:39;;;;;;;14.47;10.80;;;7.40;99.90;;;;;;5014825;28;20947;-60
2020/12/18 03:33:05;;;;;;;19.30;12.13;;;7.40;99.90;;;;;;5014833;28;20495;-60
2020/12/18 03:35:33;;;;;;;16.77;12.23;;;7.30;99.90;;;;;;5014632;28;20930;-61
2020/12/18 03:37:59;;;;;;;14.93;11.13;;;7.30;99.90;;;;;;5015244;28;20457;-60
2020/12/18 03:40:25;;;;;;;16.00;11.30;;;7.30;99.90;;;;;;5016521;28;20460;-60
2020/12/18 03:42:51;;;;;;;15.70;11.60;;;7.30;99.90;;;;;;5019011;28;20456;-61
2020/12/18 03:45:17;;;;;;;16.97;12.03;;;7.30;99.90;;;;;;5018721;28;20460;-61
2020/12/18 03:47:43;;;;;;;17.73;11.93;;;7.30;99.90;;;;;;5018866;28;20884;-60
2020/12/18 03:50:09;;;;;;;17.27;12.77;;;7.20;99.90;;;;;;5018961;28;20829;-60
2020/12/18 03:52:36;;;;;;;14.93;11.20;;;7.20;99.90;;;;;;5018867;28;20472;-60
2020/12/18 03:55:02;;;;;;;15.10;11.57;;;7.20;99.90;;;;;;5018888;28;20518;-60
2020/12/18 03:57:28;;;;;;;19.77;11.03;;;7.20;99.90;;;;;;5018759;28;20453;-61
2020/12/18 03:59:54;;;;;;;21.77;13.00;;;7.20;99.90;;;;;;5018784;28;20484;-61
2020/12/18 04:02:20;;;;;;;18.97;12.30;;;7.10;99.90;;;;;;5018837;28;20546;-61
2020/12/18 04:04:46;;;;;;;17.80;11.10;;;7.10;99.90;;;;;;5020457;28;20489;-62
2020/12/18 04:07:13;;;;;;;14.17;11.30;;;7.10;99.90;;;;;;5018984;28;20460;-61
2020/12/18 04:09:41;;;;;;;19.60;13.07;;;7.00;99.90;;;;;;5018803;28;20522;-60
2020/12/18 04:12:07;;;;;;;16.83;11.87;;;7.00;99.90;;;;;;5018704;28;20457;-61
2020/12/18 04:14:34;;;;;;;18.00;13.17;;;7.00;99.90;;;;;;5018380;28;20460;-60
2020/12/18 04:17:01;;;;;;;18.10;12.77;;;7.00;99.90;;;;;;5018364;28;20507;-60
2020/12/18 04:19:28;;;;;;;20.37;13.93;;;7.00;99.90;;;;;;5018413;28;20456;-60
2020/12/18 04:21:54;;;;;;;18.90;12.73;;;7.00;99.90;;;;;;5018510;28;20464;-60
2020/12/18 04:24:20;;;;;;;16.50;12.13;;;7.00;99.90;;;;;;5018602;28;20465;-60
2020/12/18 04:26:47;;;;;;;18.13;11.73;;;7.00;99.90;;;;;;5018053;28;20477;-60
2020/12/18 04:29:13;;;;;;;19.47;12.70;;;7.00;99.90;;;;;;5018101;28;20771;-61
2020/12/18 04:31:39;;;;;;;19.07;12.30;;;6.90;99.90;;;;;;5018218;28;20453;-61
2020/12/18 04:34:05;;;;;;;17.90;12.63;;;6.90;99.90;;;;;;5017927;28;20530;-60
2020/12/18 04:36:31;;;;;;;20.93;13.33;;;7.00;99.90;;;;;;5018330;28;20516;-61
2020/12/18 04:38:57;;;;;;;22.60;14.13;;;7.00;99.90;;;;;;5019929;28;20476;-62
2020/12/18 04:41:25;;;;;;;21.30;14.37;;;7.00;99.90;;;;;;5017850;28;20456;-61
2020/12/18 04:43:53;;;;;;;18.73;13.30;;;7.00;99.90;;;;;;5018436;28;20544;-60
2020/12/18 04:46:23;;;;;;;18.63;13.50;;;7.00;99.90;;;;;;5017976;28;20519;-58
2020/12/18 04:48:50;;;;;;;18.83;13.70;;;7.00;99.90;;;;;;5018450;28;20809;-60
2020/12/18 04:51:18;;;;;;;18.80;13.20;;;7.00;99.90;;;;;;5018206;28;20457;-60
2020/12/18 04:53:48;;;;;;;18.37;13.00;;;7.00;99.90;;;;;;5017385;28;20468;-60
2020/12/18 04:56:19;;;;;;;16.40;11.97;;;7.00;99.90;;;;;;5019280;28;20708;-61
2020/12/18 04:58:52;;;;;;;22.03;13.40;;;7.00;99.90;;;;;;5020677;28;20445;-60
2020/12/18 05:01:20;;;;;;;20.43;14.00;;;7.00;99.90;;;;;;5020758;28;20498;-60
2020/12/18 05:03:46;;;;;;;21.00;13.87;;;7.00;99.90;;;;;;5018223;28;20779;-60
2020/12/18 05:06:12;;;;;;;18.07;13.10;;;7.00;99.90;;;;;;5018183;28;20500;-60
2020/12/18 05:08:38;;;;;;;18.60;12.30;;;7.00;99.90;;;;;;5017629;28;20465;-60
2020/12/18 05:11:20;;;;;;;20.30;13.50;;;7.00;99.90;;;;;;5017548;28;20460;-60
2020/12/18 05:13:46;;;;;;;18.83;12.77;;;7.10;99.90;;;;;;5017446;28;20523;-60
2020/12/18 05:16:14;;;;;;;19.43;12.80;;;7.00;99.90;;;;;;5018161;28;20902;-60
2020/12/18 05:18:40;;;;;;;18.17;13.53;;;7.00;99.90;;;;;;5020305;28;20473;-61
2020/12/18 05:21:06;;;;;;;17.20;12.90;;;7.00;99.90;;;;;;5017258;28;20791;-60
2020/12/18 05:23:36;;;;;;;17.97;12.33;;;7.00;99.90;;;;;;5016982;28;20485;-60
2020/12/18 05:26:05;;;;;;;18.37;13.40;;;7.00;99.90;;;;;;5016639;28;21043;-60
2020/12/18 05:28:37;;;;;;;21.30;13.43;;;7.10;99.90;;;;;;5016860;28;20468;-60
2020/12/18 05:31:08;;;;;;;16.77;12.47;;;7.00;99.90;;;;;;5017661;28;20512;-61
2020/12/18 05:33:35;;;;;;;20.60;12.93;;;7.00;99.90;;;;;;5016741;28;20773;-59
2020/12/18 05:36:01;;;;;;;20.17;13.30;;;7.00;99.90;;;;;;5016706;28;20468;-60
2020/12/18 05:38:27;;;;;;;20.20;13.37;;;7.00;99.90;;;;;;5016944;28;20461;-60
2020/12/18 05:40:53;;;;;;;21.20;12.30;;;7.10;99.90;;;;;;5017100;28;20497;-60
2020/12/18 05:43:19;;;;;;;18.10;12.30;;;7.10;99.90;;;;;;5016798;28;20895;-60
2020/12/18 05:45:45;;;;;;;14.63;10.97;;;7.10;99.90;;;;;;5016763;28;20472;-60
2020/12/18 05:48:14;;;;;;;16.10;11.93;;;7.10;99.90;;;;;;5016704;28;20522;-60
2020/12/18 05:50:42;;;;;;;16.37;12.33;;;7.10;99.90;;;;;;5016701;28;20460;-59
2020/12/18 05:53:10;;;;;;;16.80;11.90;;;7.10;99.90;;;;;;5016570;28;20488;-60
2020/12/18 05:55:38;;;;;;;17.37;12.83;;;7.10;99.90;;;;;;5016705;28;20461;-61
2020/12/18 05:58:04;;;;;;;17.93;11.63;;;7.10;99.90;;;;;;5016906;28;20461;-60
2020/12/18 06:00:31;;;;;;;19.87;12.07;;;7.10;99.90;;;;;;5016871;28;20457;-60
2020/12/18 06:03:00;;;;;;;17.20;12.17;;;7.10;99.90;;;;;;5016556;28;20930;-60
2020/12/18 06:05:27;;;;;;;17.00;12.33;;;7.10;99.90;;;;;;5018193;28;20512;-59
2020/12/18 06:07:54;;;;;;;16.70;11.70;;;7.10;99.90;;;;;;5017464;28;20492;-61
2020/12/18 06:10:22;;;;;;;19.67;12.93;;;7.00;99.90;;;;;;5019354;28;20465;-60
2020/12/18 06:12:48;;;;;;;16.83;12.13;;;7.10;99.90;;;;;;5017506;28;20456;-59
2020/12/18 06:15:17;;;;;;;18.00;12.37;;;7.10;99.90;;;;;;5017536;28;20461;-60
2020/12/18 06:17:45;;;;;;;17.20;11.20;;;7.10;99.90;;;;;;5016483;28;20561;-60
2020/12/18 06:20:14;;;;;;;14.47;11.33;;;7.10;99.90;;;;;;5016524;28;20457;-60
2020/12/18 06:22:57;;;;;;;15.90;10.80;;;7.10;99.90;;;;;;5016378;28;20559;-60
2020/12/18 06:25:23;;;;;;;18.17;13.20;;;7.10;99.90;;;;;;5017757;28;20442;-60
2020/12/18 06:27:55;;;;;;;20.70;12.93;;;7.10;99.90;;;;;;5016344;28;20527;-60
2020/12/18 06:30:21;;;;;;;17.57;12.50;;;7.10;99.90;;;;;;5015449;28;20445;-60
2020/12/18 06:32:47;;;;;;;19.40;12.53;;;7.00;99.90;;;;;;5016183;28;20461;-60
2020/12/18 06:35:28;;;;;;;21.07;13.67;;;6.90;99.90;;;;;;5015662;28;20468;-61
2020/12/18 06:37:55;;;;;;;19.13;13.80;;;6.90;99.90;;;;;;5015899;28;20457;-60
2020/12/18 06:40:29;;;;;;;19.03;12.33;;;6.90;99.90;;;;;;5015874;28;20519;-61
2020/12/18 06:42:57;;;;;;;20.93;14.30;;;6.90;99.90;;;;;;5015963;28;20444;-61
2020/12/18 06:45:24;;;;;;;20.90;13.10;;;6.80;99.90;;;;;;5015840;28;20790;-61
2020/12/18 06:47:50;;;;;;;19.40;13.53;;;6.80;99.90;;;;;;5016037;28;20507;-60
2020/12/18 06:50:17;;;;;;;22.80;15.13;;;6.70;99.90;;;;;;5016274;28;20530;-61
2020/12/18 06:52:52;;;;;;;25.03;15.10;;;6.70;99.90;;;;;;5016039;28;20768;-60
2020/12/18 06:55:38;;;;;;;20.57;14.93;;;6.60;99.90;;;;;;5020243;28;20456;-60
2020/12/18 06:58:12;;;;;;;21.73;13.97;;;6.60;99.90;;;;;;5018921;28;20464;-59
2020/12/18 07:00:43;;;;;;;20.17;13.60;;;6.50;99.90;;;;;;5019239;28;20467;-61
2020/12/18 07:03:09;;;;;;;21.90;13.33;;;6.50;99.90;;;;;;5017087;28;20929;-60
2020/12/18 07:05:37;;;;;;;22.43;14.33;;;6.40;99.90;;;;;;5016049;28;20489;-71
2020/12/18 07:08:06;;;;;;;19.43;13.97;;;6.40;99.90;;;;;;5016769;28;20558;-69
2020/12/18 07:10:37;;;;;;;21.53;14.40;;;6.40;99.90;;;;;;5016778;28;20468;-70
2020/12/18 07:13:05;;;;;;;20.83;14.30;;;6.40;99.90;;;;;;5016941;28;20441;-70
2020/12/18 07:15:48;;;;;;;21.07;14.07;;;6.30;99.90;;;;;;5016138;28;20467;-61
2020/12/18 07:18:15;;;;;;;21.23;13.50;;;6.20;99.90;;;;;;5017924;28;20525;-61
2020/12/18 07:20:45;;;;;;;22.20;14.80;;;6.20;99.90;;;;;;5016980;28;20519;-60
2020/12/18 07:23:11;;;;;;;22.10;14.57;;;6.20;99.90;;;;;;5015874;28;20458;-61
2020/12/18 07:25:38;;;;;;;18.80;13.50;;;6.20;99.90;;;;;;5015895;28;20468;-62
2020/12/18 07:28:05;;;;;;;20.40;14.30;;;6.10;99.90;;;;;;5015800;28;20527;-59
2020/12/18 07:30:32;;;;;;;23.33;13.50;;;6.10;99.90;;;;;;5016304;28;20475;-70
2020/12/18 07:32:58;;;;;;;21.43;15.00;;;6.10;99.90;;;;;;5016076;28;20809;-61
2020/12/18 07:35:24;;;;;;;18.50;13.40;;;6.20;99.90;;;;;;5015816;28;20465;-69
2020/12/18 07:37:50;;;;;;;21.10;14.87;;;6.10;99.90;;;;;;5016795;28;20603;-70
2020/12/18 07:40:17;;;;;;;26.23;15.00;;;6.10;99.90;;;;;;5018039;28;20540;-70
2020/12/18 07:42:44;;;;;;;23.07;14.77;;;6.10;99.90;;;;;;5015927;28;20518;-70
2020/12/18 07:45:10;;;;;;;22.67;15.30;;;6.10;99.90;;;;;;5015792;28;20463;-70
2020/12/18 07:47:38;;;;;;;23.07;15.60;;;6.00;99.90;;;;;;5015721;28;20480;-70
2020/12/18 07:50:05;;;;;;;19.70;13.77;;;6.10;99.90;;;;;;5015507;28;20457;-69
2020/12/18 07:52:33;;;;;;;19.40;14.80;;;6.10;99.90;;;;;;5016007;28;20518;-70
2020/12/18 07:55:00;;;;;;;34.53;18.70;;;6.10;99.90;;;;;;5015588;28;20457;-70
2020/12/18 07:57:26;;;;;;;53.90;31.37;;;6.10;99.90;;;;;;5015882;28;20471;-70
2020/12/18 08:00:05;;;;;;;29.80;16.67;;;6.10;99.90;;;;;;5014783;28;20449;-70
2020/12/18 08:02:31;;;;;;;20.03;13.53;;;6.10;99.90;;;;;;5015316;28;20495;-70
2020/12/18 08:04:58;;;;;;;19.97;13.83;;;6.10;99.90;;;;;;5014562;28;20495;-71
2020/12/18 08:07:24;;;;;;;23.53;13.87;;;6.10;99.90;;;;;;5015295;28;20473;-70
2020/12/18 08:10:01;;;;;;;18.40;13.90;;;6.10;99.90;;;;;;5015127;28;20472;-70
2020/12/18 08:12:31;;;;;;;24.43;16.10;;;6.10;99.90;;;;;;5015370;28;20460;-60
2020/12/18 08:15:11;;;;;;;21.80;15.17;;;6.10;99.90;;;;;;5015455;28;20468;-61
2020/12/18 08:17:38;;;;;;;19.10;14.70;;;6.10;99.90;;;;;;5015558;28;20453;-61
2020/12/18 08:20:24;;;;;;;22.57;15.80;;;6.10;99.90;;;;;;5016111;28;20456;-61
2020/12/18 08:22:52;;;;;;;24.13;15.60;;;6.10;99.90;;;;;;5015006;28;20456;-60
2020/12/18 08:25:19;;;;;;;26.13;16.90;;;6.10;99.90;;;;;;5015269;28;20464;-60
2020/12/18 08:27:48;;;;;;;24.00;15.83;;;6.10;99.90;;;;;;5018214;28;20477;-60
2020/12/18 08:30:17;;;;;;;25.03;16.30;;;6.10;99.90;;;;;;5019393;28;20456;-71
2020/12/18 08:32:48;;;;;;;22.93;14.67;;;6.10;99.90;;;;;;5018222;28;20738;-71
2020/12/18 08:35:19;;;;;;;24.30;15.57;;;6.10;99.90;;;;;;5018251;28;20793;-69
2020/12/18 08:37:45;;;;;;;24.30;15.20;;;6.00;99.90;;;;;;5017814;28;20441;-70
2020/12/18 08:40:22;;;;;;;21.80;15.10;;;6.10;99.90;;;;;;5017985;28;20457;-71
2020/12/18 08:42:59;;;;;;;20.50;15.20;;;6.10;99.90;;;;;;5018218;28;20475;-70
2020/12/18 08:45:26;;;;;;;23.90;16.17;;;6.10;99.90;;;;;;5018032;28;20462;-70
2020/12/18 08:47:52;;;;;;;22.43;14.90;;;6.10;99.90;;;;;;5017881;28;20523;-70
2020/12/18 08:50:19;;;;;;;20.60;15.23;;;6.10;99.90;;;;;;5018192;28;20468;-71
2020/12/18 08:52:46;;;;;;;21.30;15.53;;;6.00;99.90;;;;;;5018257;28;20457;-70
2020/12/18 08:55:14;;;;;;;30.13;16.10;;;6.00;99.90;;;;;;5017861;28;20461;-70
2020/12/18 08:57:41;;;;;;;22.17;14.63;;;6.00;99.90;;;;;;5017597;28;20457;-70
2020/12/18 09:00:12;;;;;;;19.97;14.63;;;6.10;99.90;;;;;;5017987;28;20457;-70
2020/12/18 09:02:42;;;;;;;24.60;15.73;;;6.20;99.90;;;;;;5018076;28;20457;-70
2020/12/18 09:05:27;;;;;;;21.63;14.67;;;6.20;99.90;;;;;;5017367;28;20485;-70
2020/12/18 09:07:58;;;;;;;21.47;15.40;;;6.20;99.90;;;;;;5018176;28;20481;-72
2020/12/18 09:10:32;;;;;;;18.73;14.63;;;6.30;99.90;;;;;;5018335;28;20464;-70
2020/12/18 09:13:09;;;;;;;20.93;14.30;;;6.30;99.90;;;;;;5018046;28;20445;-70
2020/12/18 09:15:35;;;;;;;23.43;14.87;;;6.30;99.90;;;;;;5017979;28;20452;-70
2020/12/18 09:18:04;;;;;;;23.07;16.10;;;6.40;99.90;;;;;;5018812;28;20456;-71
2020/12/18 09:20:32;;;;;;;19.93;14.40;;;6.40;99.90;;;;;;5018368;28;20472;-70
2020/12/18 09:23:01;;;;;;;20.53;14.93;;;6.40;99.90;;;;;;5017603;28;20922;-70
2020/12/18 09:25:28;;;;;;;22.13;14.80;;;6.40;99.90;;;;;;5017364;28;20504;-71
2020/12/18 09:27:56;;;;;;;25.07;16.20;;;6.50;99.90;;;;;;5017233;28;20561;-70
2020/12/18 09:30:24;;;;;;;24.57;14.30;;;6.50;99.90;;;;;;5018229;28;20456;-63
2020/12/18 09:33:11;;;;;;;41.93;22.93;;;6.60;99.90;;;;;;5017691;28;20523;-60
2020/12/18 09:35:38;;;;;;;21.70;14.00;;;6.70;99.90;;;;;;5017140;28;20891;-61
2020/12/18 09:38:04;;;;;;;19.47;13.40;;;6.80;99.90;;;;;;5016491;28;20453;-60
2020/12/18 09:40:31;;;;;;;18.37;13.37;;;6.90;99.90;;;;;;5017618;28;20487;-61
2020/12/18 09:42:57;;;;;;;18.33;13.20;;;6.90;99.90;;;;;;5017067;28;20475;-60
2020/12/18 09:45:23;;;;;;;18.60;13.67;;;7.00;99.90;;;;;;5016832;28;20879;-60
2020/12/18 09:47:50;;;;;;;23.23;14.90;;;7.10;99.90;;;;;;5017041;28;20485;-60
2020/12/18 09:50:17;;;;;;;16.50;12.50;;;7.10;99.90;;;;;;5016721;28;20465;-60
2020/12/18 09:52:43;;;;;;;19.77;13.50;;;7.20;99.90;;;;;;5017288;28;20519;-61
2020/12/18 09:55:09;;;;;;;18.87;12.77;;;7.30;99.90;;;;;;5016821;28;20488;-59
2020/12/18 09:57:35;;;;;;;20.73;13.27;;;7.30;99.90;;;;;;5017004;28;20468;-61
2020/12/18 10:00:03;;;;;;;18.33;12.13;;;7.30;99.90;;;;;;5017433;28;20461;-60
2020/12/18 10:02:29;;;;;;;17.43;12.93;;;7.40;99.90;;;;;;5018177;28;20457;-60
2020/12/18 10:04:56;;;;;;;21.67;14.03;;;7.50;99.90;;;;;;5017599;28;20584;-60
2020/12/18 10:07:23;;;;;;;19.60;13.03;;;7.50;99.90;;;;;;5017322;28;20469;-60
2020/12/18 10:09:49;;;;;;;18.80;13.87;;;7.50;99.90;;;;;;5017302;28;20457;-61
2020/12/18 10:12:15;;;;;;;16.57;12.93;;;7.50;99.90;;;;;;5019374;28;20461;-61
2020/12/18 10:14:42;;;;;;;17.70;12.80;;;7.50;99.90;;;;;;5021198;28;20518;-61
2020/12/18 10:17:08;;;;;;;20.30;13.57;;;7.50;99.90;;;;;;5022087;28;20465;-61
2020/12/18 10:28:59;;;;;;;18.10;13.07;;;7.70;99.90;;;;;;5481063;22;20492;-60
2020/12/18 10:31:25;;;;;;;20.20;13.17;;;7.70;99.90;;;;;;5016686;28;20547;-61
2020/12/18 10:33:51;;;;;;;15.87;12.20;;;7.80;99.90;;;;;;5017528;28;20465;-61
2020/12/18 10:36:18;;;;;;;17.10;12.60;;;7.70;99.90;;;;;;5018389;28;20532;-60
2020/12/18 10:38:44;;;;;;;18.80;12.50;;;7.70;99.90;;;;;;5018472;28;20465;-60
2020/12/18 10:41:10;;;;;;;16.10;13.40;;;7.80;99.90;;;;;;5018075;28;20564;-60
2020/12/18 10:43:36;;;;;;;17.90;13.23;;;7.80;99.90;;;;;;5017395;28;20465;-68
2020/12/18 10:46:03;;;;;;;18.27;13.20;;;7.80;99.90;;;;;;5016509;28;20461;-70
2020/12/18 10:48:29;;;;;;;20.03;13.57;;;7.90;99.90;;;;;;5015716;28;20926;-69
2020/12/18 10:50:56;;;;;;;19.77;13.70;;;7.90;99.90;;;;;;5017400;28;20449;-70
2020/12/18 10:53:22;;;;;;;15.53;12.70;;;8.00;99.90;;;;;;5019706;28;20457;-70
2020/12/18 10:55:48;;;;;;;19.27;14.30;;;8.10;99.90;;;;;;5020214;28;20988;-71
2020/12/18 10:58:14;;;;;;;25.20;13.10;;;8.10;99.90;;;;;;5019610;28;20887;-69
2020/12/18 11:00:42;;;;;;;24.03;12.10;;;8.10;99.90;;;;;;5016569;28;20457;-70
2020/12/18 11:03:09;;;;;;;16.73;12.77;;;8.20;99.90;;;;;;5016823;28;20459;-70
2020/12/18 11:05:35;;;;;;;17.30;13.10;;;8.20;99.90;;;;;;5016129;28;20503;-71
2020/12/18 11:08:01;;;;;;;18.37;11.80;;;8.20;99.90;;;;;;5016042;28;20491;-60
2020/12/18 11:10:28;;;;;;;22.60;13.43;;;8.20;99.90;;;;;;5016135;28;20468;-61
2020/12/18 11:12:54;;;;;;;17.47;11.37;;;8.20;99.90;;;;;;5015586;28;20460;-60
2020/12/18 11:15:20;;;;;;;16.33;12.23;;;8.30;99.90;;;;;;5015268;28;20473;-59
2020/12/18 11:17:48;;;;;;;15.13;11.30;;;8.30;99.90;;;;;;5015325;28;20453;-60
2020/12/18 11:20:15;;;;;;;16.93;11.30;;;8.30;99.90;;;;;;5016094;28;20523;-69
2020/12/18 11:22:41;;;;;;;18.87;12.57;;;8.40;99.90;;;;;;5016688;28;20453;-61
2020/12/18 11:25:07;;;;;;;50.77;28.53;;;8.40;99.90;;;;;;5016101;28;20527;-61
2020/12/18 11:27:33;;;;;;;20.10;11.53;;;8.60;99.90;;;;;;5015384;28;20618;-60
2020/12/18 11:29:59;;;;;;;14.13;11.60;;;8.70;99.90;;;;;;5016266;28;20806;-60
2020/12/18 11:32:25;;;;;;;16.73;11.77;;;8.80;99.90;;;;;;5015419;28;20471;-60
2020/12/18 11:34:51;;;;;;;14.60;10.30;;;8.80;99.90;;;;;;5015267;28;20952;-60
2020/12/18 11:37:18;;;;;;;13.10;10.60;;;8.90;99.90;;;;;;5016753;28;20463;-70
2020/12/18 11:39:44;;;;;;;18.70;10.73;;;9.00;99.90;;;;;;5015386;28;20785;-70
2020/12/18 11:42:11;;;;;;;15.70;10.10;;;9.10;99.90;;;;;;5017163;28;20534;-70
2020/12/18 11:44:37;;;;;;;13.70;9.30;;;9.20;99.90;;;;;;5018719;28;20475;-69
2020/12/18 11:47:09;;;;;;;13.30;9.67;;;9.30;99.90;;;;;;5017711;28;20485;-70
2020/12/18 11:49:35;;;;;;;12.43;9.43;;;9.40;99.90;;;;;;5018689;28;20465;-70
2020/12/18 11:52:03;;;;;;;15.53;9.30;;;9.40;99.90;;;;;;5019494;28;20461;-70
2020/12/18 11:54:30;;;;;;;13.40;8.77;;;9.40;99.90;;;;;;5015703;28;20537;-70
2020/12/18 11:56:56;;;;;;;15.40;9.40;;;9.40;99.90;;;;;;5015868;28;20457;-70
2020/12/18 11:59:22;;;;;;;13.17;9.90;;;9.50;99.90;;;;;;5015524;28;20461;-71
2020/12/18 12:01:48;;;;;;;11.00;8.13;;;9.60;99.90;;;;;;5017879;28;20468;-69
2020/12/18 12:04:15;;;;;;;11.07;8.10;;;9.90;99.90;;;;;;5019886;28;20797;-59
2020/12/18 12:06:41;;;;;;;11.57;8.73;;;10.50;99.90;;;;;;5019792;28;20484;-70
2020/12/18 12:09:08;;;;;;;12.17;7.83;;;11.30;99.90;;;;;;5020187;28;20460;-70
2020/12/18 12:11:39;;;;;;;12.13;8.47;;;12.00;99.90;;;;;;5019815;28;20942;-70
2020/12/18 12:14:06;;;;;;;11.50;8.10;;;12.40;99.90;;;;;;5020669;28;20457;-60
2020/12/18 12:16:33;;;;;;;10.97;7.47;;;12.80;99.90;;;;;;5020706;28;20459;-60
2020/12/18 12:18:59;;;;;;;11.40;6.83;;;13.40;99.90;;;;;;5019162;28;20460;-60
2020/12/18 12:21:32;;;;;;;11.00;7.80;;;13.70;99.90;;;;;;5018539;28;20457;-60
2020/12/18 12:23:58;;;;;;;9.70;6.90;;;14.20;99.90;;;;;;5019314;28;20476;-61
2020/12/18 12:26:24;;;;;;;9.07;7.20;;;14.30;99.90;;;;;;5019066;28;20556;-62
2020/12/18 12:28:51;;;;;;;8.80;6.77;;;14.80;99.90;;;;;;5017978;28;20559;-61
2020/12/18 12:31:18;;;;;;;11.00;6.47;;;15.20;99.90;;;;;;5018834;28;20472;-61
2020/12/18 12:33:44;;;;;;;9.73;7.07;;;15.80;99.90;;;;;;5018254;28;20500;-60
2020/12/18 12:36:10;;;;;;;11.57;7.10;;;16.30;99.90;;;;;;5019332;28;20460;-59
2020/12/18 12:38:36;;;;;;;12.77;7.70;;;16.90;99.90;;;;;;5019147;28;20568;-70
2020/12/18 12:41:02;;;;;;;12.07;6.97;;;17.00;99.90;;;;;;5018520;28;20468;-60
2020/12/18 12:43:28;;;;;;;10.30;6.70;;;16.60;99.90;;;;;;5019334;28;20456;-61
2020/12/18 12:45:55;;;;;;;9.87;7.20;;;16.40;99.90;;;;;;5019443;28;20472;-70
2020/12/18 12:48:22;;;;;;;12.40;7.23;;;16.10;99.90;;;;;;5019790;28;20489;-70